TimeCET,TemperatureF,Dew PointF,Humidity,Sea Level PressureIn,VisibilityMPH,Wind Direction,Wind SpeedMPH,Gust SpeedMPH,PrecipitationIn,Events,Conditions,WindDirDegrees,DateUTC
12:20 AM,48.2,33.8,58,29.53,-9999.0,East,5.8,-,N/A,,Clear,90,2013-03-06 23:20:00
12:50 AM,46.4,33.8,62,29.50,-9999.0,East,5.8,-,N/A,,Clear,90,2013-03-06 23:50:00
1:00 AM,47,34,49,29.53,10,East,4.5,,,,Partly Cloudy,90,2013-03-07 00:00:00
1:20 AM,48.2,33.8,58,29.50,-9999.0,East,3.5,-,N/A,,Clear,100,2013-03-07 00:20:00
1:50 AM,48.2,33.8,58,29.50,-9999.0,East,3.5,-,N/A,,Clear,100,2013-03-07 00:50:00
2:20 AM,46.4,35.6,66,29.50,-9999.0,East,4.6,-,N/A,,Clear,90,2013-03-07 01:20:00
2:50 AM,46.4,35.6,66,29.50,-9999.0,East,4.6,-,N/A,,Clear,90,2013-03-07 01:50:00
3:20 AM,46.4,37.4,71,29.50,-9999.0,East,4.6,-,N/A,,Clear,90,2013-03-07 02:20:00
3:50 AM,46.4,33.8,62,29.50,-9999.0,East,2.3,-,N/A,,Clear,100,2013-03-07 02:50:00
4:00 AM,47,35,51,29.51,10,East,2.2,,,,Scattered Clouds,100,2013-03-07 03:00:00
4:20 AM,44.6,37.4,76,29.50,6.2,East,3.5,-,N/A,,Partly Cloudy,80,2013-03-07 03:20:00
4:50 AM,44.6,37.4,76,29.50,-9999.0,ESE,3.5,-,N/A,,Clear,110,2013-03-07 03:50:00
5:20 AM,48.2,33.8,58,29.47,-9999.0,Variable,1.2,-,N/A,,Clear,0,2013-03-07 04:20:00
5:50 AM,46.4,35.6,66,29.47,-9999.0,Variable,2.3,-,N/A,,Clear,0,2013-03-07 04:50:00
6:20 AM,46.4,35.6,66,29.50,-9999.0,East,9.2,-,N/A,,Clear,100,2013-03-07 05:20:00
6:50 AM,48.2,33.8,58,29.47,-9999.0,SSW,3.5,-,N/A,,Clear,200,2013-03-07 05:50:00
7:00 AM,48,35,49,29.50,9,SSW,2.2,,,,Partly Cloudy,200,2013-03-07 06:00:00
7:20 AM,46.4,35.6,66,29.50,-9999.0,ENE,8.1,-,N/A,,Clear,70,2013-03-07 06:20:00
7:50 AM,48.2,35.6,62,29.47,-9999.0,SW,5.8,-,N/A,,Clear,230,2013-03-07 06:50:00
8:20 AM,48.2,37.4,66,29.50,-9999.0,East,6.9,-,N/A,,Clear,100,2013-03-07 07:20:00
8:50 AM,50.0,37.4,62,29.50,-9999.0,Variable,2.3,-,N/A,,Clear,0,2013-03-07 07:50:00
9:20 AM,50.0,39.2,66,29.50,-9999.0,ENE,5.8,-,N/A,,Clear,60,2013-03-07 08:20:00
9:50 AM,50.0,39.2,66,29.50,-9999.0,SE,6.9,-,N/A,,Clear,130,2013-03-07 08:50:00
10:00 AM,49,39,59,29.52,9,SE,6.7,,,,Overcast,130,2013-03-07 09:00:00
10:20 AM,51.8,37.4,58,29.50,-9999.0,SSW,3.5,-,N/A,,Clear,200,2013-03-07 09:20:00
10:50 AM,53.6,41.0,62,29.50,-9999.0,SE,4.6,-,N/A,,Clear,130,2013-03-07 09:50:00
11:20 AM,53.6,41.0,62,29.50,-9999.0,South,5.8,-,N/A,,Clear,180,2013-03-07 10:20:00
11:50 AM,55.4,44.6,67,29.50,-9999.0,South,6.9,-,N/A,,Clear,190,2013-03-07 10:50:00
12:20 PM,55.4,42.8,63,29.50,-9999.0,SSW,8.1,-,N/A,,Clear,210,2013-03-07 11:20:00
12:50 PM,57.2,44.6,63,29.50,-9999.0,SSW,4.6,-,N/A,,Clear,200,2013-03-07 11:50:00
1:00 PM,57,45,53,29.50,6,SSW,4.5,,,,Overcast,200,2013-03-07 12:00:00
1:20 PM,57.2,44.6,63,29.47,-9999.0,South,5.8,-,N/A,,Clear,190,2013-03-07 12:20:00
1:50 PM,57.2,44.6,63,29.47,-9999.0,South,4.6,-,N/A,,Clear,180,2013-03-07 12:50:00
2:20 PM,57.2,46.4,67,29.47,6.2,SSE,4.6,-,N/A,Rain,Light Rain,160,2013-03-07 13:20:00
2:50 PM,57.2,46.4,67,29.47,6.2,SSE,5.8,-,N/A,,Partly Cloudy,150,2013-03-07 13:50:00
3:20 PM,57.2,46.4,67,29.47,6.2,SSE,5.8,-,N/A,,Partly Cloudy,150,2013-03-07 14:20:00
3:50 PM,57.2,46.4,67,29.44,6.2,SE,5.8,-,N/A,,Mostly Cloudy,140,2013-03-07 14:50:00
4:00 PM,57,46,57,29.47,7,SE,6.7,,,,Partly Cloudy,140,2013-03-07 15:00:00
4:20 PM,55.4,46.4,72,29.44,6.2,Variable,2.3,-,N/A,,Mostly Cloudy,0,2013-03-07 15:20:00
4:50 PM,55.4,48.2,77,29.44,6.2,East,4.6,-,N/A,Rain,Light Rain,100,2013-03-07 15:50:00
5:20 PM,53.6,48.2,82,29.44,6.2,ENE,3.5,-,N/A,,Mostly Cloudy,70,2013-03-07 16:20:00
5:50 PM,53.6,50.0,88,29.44,3.7,ESE,4.6,-,N/A,Rain,Light Rain,110,2013-03-07 16:50:00
6:20 PM,51.8,50.0,94,29.44,5.0,East,4.6,-,N/A,Rain,Light Rain,100,2013-03-07 17:20:00
6:50 PM,51.8,48.2,88,29.47,4.3,East,4.6,-,N/A,Rain,Light Rain,100,2013-03-07 17:50:00
7:00 PM,51,49,90,29.48,4,East,4.5,,,Rain,Light Rain,100,2013-03-07 18:00:00
7:20 PM,51.8,50.0,94,29.47,2.8,South,3.5,-,N/A,Rain,Light Rain,170,2013-03-07 18:20:00
7:50 PM,51.8,50.0,94,29.47,2.2,SSE,6.9,-,N/A,Rain,Light Rain,150,2013-03-07 18:50:00
8:20 PM,50.0,50.0,100,29.47,-9999.0,ESE,3.5,-,N/A,Rain,Light Rain,120,2013-03-07 19:20:00
8:50 PM,50.0,50.0,100,29.47,1.6,East,3.5,-,N/A,Rain,Light Rain,100,2013-03-07 19:50:00
9:20 PM,50.0,50.0,100,29.47,1.6,ESE,4.6,-,N/A,Rain,Light Rain,120,2013-03-07 20:20:00
9:50 PM,50.0,48.2,94,29.47,1.9,ESE,3.5,-,N/A,Rain,Light Rain,110,2013-03-07 20:50:00
10:00 PM,50,49,94,29.48,2,ESE,4.5,,,Rain,Light Rain,110,2013-03-07 21:00:00
10:20 PM,50.0,48.2,94,29.47,1.6,ESE,4.6,-,N/A,,Mostly Cloudy,110,2013-03-07 21:20:00
10:50 PM,50.0,48.2,94,29.47,1.2,SE,3.5,-,N/A,,Mostly Cloudy,130,2013-03-07 21:50:00
11:20 PM,50.0,48.2,94,29.47,1.3,SE,3.5,-,N/A,,Overcast,140,2013-03-07 22:20:00
11:50 PM,48.2,48.2,100,29.47,1.1,ESE,4.6,-,N/A,,Overcast,120,2013-03-07 22:50:00